Aviation Digital Data Service (ADDS)

Output produced by METARs form (0039 UTC 26 June 2019)
found at http://aviationweather.gov/metar/data/
 
KBPT 252332Z 2600/2624 VRB06KT P6SM SHRA BKN018 BKN050 OVC100 
     TEMPO 2600/2603 VRB15G30KT 1SM SHRA BKN025 BKN040 
     FM260300 13007KT P6SM VCTS SCT025CB BKN050 
     FM260800 11008KT P6SM SCT017 BKN250 
     TEMPO 2608/2612 VRB14G19KT 3SM -TSRA BKN024 OVC028CB